createdAt,value
2018-04-26T00:01:44.739Z,100018.23
2018-04-26T00:04:12.124Z,100024.05
2018-04-26T00:06:39.511Z,100012.50
2018-04-26T00:09:06.907Z,100018.06
2018-04-26T00:11:34.300Z,100013.77
2018-04-26T00:14:01.691Z,100013.91
2018-04-26T00:16:29.082Z,100011.44
2018-04-26T00:18:56.735Z,100012.58
2018-04-26T00:21:24.123Z,100013.63
2018-04-26T00:23:51.510Z,100016.42
2018-04-26T00:26:18.909Z,100018.55
2018-04-26T00:28:46.295Z,100023.81
2018-04-26T00:31:13.686Z,100021.03
2018-04-26T00:33:41.071Z,100015.87
2018-04-26T00:36:08.488Z,100024.73
2018-04-26T00:38:35.880Z,100019.70
2018-04-26T00:41:03.267Z,100015.09
2018-04-26T00:43:30.663Z,100018.38
2018-04-26T00:45:58.247Z,100017.03
2018-04-26T00:48:25.647Z,100017.30
2018-04-26T00:50:53.092Z,100020.56
2018-04-26T00:53:20.483Z,100014.89
2018-04-26T00:55:47.871Z,100013.93
2018-04-26T00:58:15.267Z,100013.95
2018-04-26T01:00:42.650Z,100012.45
2018-04-26T01:03:10.045Z,100011.05
2018-04-26T01:05:37.431Z,100014.80
2018-04-26T01:08:04.827Z,100020.33
2018-04-26T01:10:32.219Z,100014.42
2018-04-26T01:12:59.602Z,100018.55
2018-04-26T01:15:26.999Z,100021.24
2018-04-26T01:17:54.382Z,100011.09
2018-04-26T01:20:21.783Z,100013.72
2018-04-26T01:22:49.167Z,100013.47
2018-04-26T01:25:16.575Z,100011.06
2018-04-26T01:27:43.962Z,100014.48
2018-04-26T01:30:11.363Z,100011.95
2018-04-26T01:32:38.744Z,100012.75
2018-04-26T01:35:06.132Z,100015.10
2018-04-26T01:37:45.392Z,100012.14
2018-04-26T01:40:12.777Z,100014.09
2018-04-26T01:42:40.171Z,100008.44
2018-04-26T01:45:07.560Z,100015.59
2018-04-26T01:47:35.337Z,100013.20
2018-04-26T01:50:03.576Z,100009.13
2018-04-26T01:52:30.968Z,100003.92
2018-04-26T01:54:58.367Z,100007.59
2018-04-26T01:57:25.755Z,100008.02
2018-04-26T01:59:53.147Z,100004.92
2018-04-26T02:02:20.535Z,100013.22
2018-04-26T02:04:47.939Z,100004.56
2018-04-26T02:07:15.329Z,100008.31
2018-04-26T02:09:42.732Z,100012.89
2018-04-26T02:12:10.122Z,100004.62
2018-04-26T02:14:37.507Z,100006.86
2018-04-26T02:17:04.908Z,100010.48
2018-04-26T02:19:32.294Z,100005.39
2018-04-26T02:21:59.683Z,100013.66
2018-04-26T02:24:27.066Z,100003.09
2018-04-26T02:26:54.463Z,100006.74
2018-04-26T02:29:21.846Z,100007.34
2018-04-26T02:31:49.337Z,100001.67
2018-04-26T02:34:16.635Z,100000.97
2018-04-26T02:36:44.015Z,100003.27
2018-04-26T02:39:11.413Z,100005.70
2018-04-26T02:41:38.791Z,99999.45
2018-04-26T02:44:06.195Z,100000.41
2018-04-26T02:46:33.571Z,99997.75
2018-04-26T02:49:00.963Z,100001.21
2018-04-26T02:51:28.362Z,100005.23
2018-04-26T02:53:55.748Z,99994.95
2018-04-26T02:56:23.139Z,100001.08
2018-04-26T02:58:50.531Z,100004.58
2018-04-26T03:01:17.924Z,100005.34
2018-04-26T03:03:45.323Z,100006.60
2018-04-26T03:06:12.713Z,100004.03
2018-04-26T03:08:40.095Z,100002.45
2018-04-26T03:11:07.483Z,99997.16
2018-04-26T03:13:34.867Z,99998.81
2018-04-26T03:16:02.267Z,100005.34
2018-04-26T03:18:29.646Z,100008.30
2018-04-26T03:20:57.039Z,100002.70
2018-04-26T03:23:24.428Z,100001.52
2018-04-26T03:25:51.817Z,100000.70
2018-04-26T03:28:19.218Z,100012.44
2018-04-26T03:30:46.607Z,100014.26
2018-04-26T03:33:14.000Z,100016.05
2018-04-26T03:35:41.398Z,100013.75
2018-04-26T03:38:08.787Z,100015.56
2018-04-26T03:40:36.179Z,100016.41
2018-04-26T03:43:03.568Z,100015.86
2018-04-26T03:45:30.958Z,100019.01
2018-04-26T03:47:58.342Z,100019.52
2018-04-26T03:50:25.726Z,100014.11
2018-04-26T03:52:53.119Z,100015.50
2018-04-26T03:55:20.718Z,100010.02
2018-04-26T03:57:48.115Z,100024.50
2018-04-26T04:00:27.232Z,100019.53
2018-04-26T04:03:06.504Z,100024.86
2018-04-26T04:05:45.786Z,100024.91
2018-04-26T04:08:13.167Z,100017.13
2018-04-26T04:10:40.559Z,100017.70
2018-04-26T04:13:07.988Z,100024.44
2018-04-26T04:15:35.367Z,100026.66
2018-04-26T04:18:02.755Z,100036.84
2018-04-26T04:20:30.146Z,100034.73
2018-04-26T04:22:57.715Z,100038.11
2018-04-26T04:25:25.158Z,100039.34
2018-04-26T04:27:52.557Z,100047.21
2018-04-26T04:30:19.943Z,100048.59
2018-04-26T04:32:47.327Z,100059.55
2018-04-26T04:35:14.747Z,100057.11
2018-04-26T04:37:42.103Z,100061.04
2018-04-26T04:40:09.491Z,100067.69
2018-04-26T04:42:36.871Z,100071.39
2018-04-26T04:45:04.423Z,100067.84
2018-04-26T04:47:31.823Z,100073.31
2018-04-26T04:49:59.262Z,100071.39
2018-04-26T04:52:26.647Z,100077.23
2018-04-26T04:54:54.051Z,100074.71
2018-04-26T04:57:21.430Z,100084.23
2018-04-26T04:59:48.817Z,100090.47
2018-04-26T05:02:16.199Z,100091.02
2018-04-26T05:04:43.583Z,100094.27
2018-04-26T05:07:10.966Z,100089.02
2018-04-26T05:09:38.370Z,100097.89
2018-04-26T05:12:05.764Z,100096.52
2018-04-26T05:14:33.141Z,100110.42
2018-04-26T05:17:00.527Z,100112.69
2018-04-26T05:19:27.916Z,100110.63
2018-04-26T05:21:55.306Z,100106.59
2018-04-26T05:24:22.691Z,100110.52
2018-04-26T05:26:50.074Z,100114.95
2018-04-26T05:29:17.575Z,100112.25
2018-04-26T05:31:44.918Z,100116.86
2018-04-26T05:34:12.302Z,100121.71
2018-04-26T05:36:39.684Z,100115.59
2018-04-26T05:39:07.118Z,100115.15
2018-04-26T05:41:34.511Z,100122.93
2018-04-26T05:44:01.921Z,100112.02
2018-04-26T05:46:29.303Z,100119.26
2018-04-26T05:48:56.698Z,100120.91
2018-04-26T05:51:24.151Z,100122.32
2018-04-26T05:53:51.516Z,100113.09
2018-04-26T05:56:19.020Z,100125.66
2018-04-26T05:58:46.421Z,100124.39
2018-04-26T06:01:13.815Z,100131.17
2018-04-26T06:03:41.234Z,100132.33
2018-04-26T06:06:08.612Z,100133.13
2018-04-26T06:08:35.995Z,100143.22
2018-04-26T06:11:03.391Z,100141.48
2018-04-26T06:13:30.775Z,100145.44
2018-04-26T06:15:58.171Z,100152.48
2018-04-26T06:18:25.554Z,100150.84
2018-04-26T06:20:52.943Z,100152.23
2018-04-26T06:23:20.335Z,100155.93
2018-04-26T06:25:47.723Z,100151.47
2018-04-26T06:28:15.111Z,100163.80
2018-04-26T06:30:42.616Z,100170.52
2018-04-26T06:33:10.007Z,100171.84
2018-04-26T06:35:37.391Z,100178.16
2018-04-26T06:38:04.783Z,100177.68
2018-04-26T06:40:32.167Z,100179.26
2018-04-26T06:42:59.556Z,100181.50
2018-04-26T06:45:26.948Z,100179.05
2018-04-26T06:47:54.348Z,100189.57
2018-04-26T06:50:21.728Z,100187.80
2018-04-26T06:52:49.115Z,100194.48
2018-04-26T06:55:16.506Z,100200.02
2018-04-26T06:57:43.899Z,100208.86
2018-04-26T07:00:11.290Z,100205.27
2018-04-26T07:02:38.673Z,100200.80
2018-04-26T07:05:06.062Z,100208.83
2018-04-26T07:07:33.443Z,100212.56
2018-04-26T07:10:01.116Z,100203.06
2018-04-26T07:12:28.503Z,100216.75
2018-04-26T07:14:56.034Z,100206.31
2018-04-26T07:17:23.423Z,100223.11
2018-04-26T07:19:50.815Z,100229.25
2018-04-26T07:22:18.198Z,100223.73
2018-04-26T07:24:45.586Z,100227.09
2018-04-26T07:27:12.989Z,100226.73
2018-04-26T07:29:40.374Z,100227.44
2018-04-26T07:32:07.762Z,100223.47
2018-04-26T07:34:35.211Z,100222.19
2018-04-26T07:37:02.604Z,100223.68
2018-04-26T07:39:30.195Z,100229.65
2018-04-26T07:41:58.108Z,100228.56
2018-04-26T07:44:25.446Z,100228.80
2018-04-26T07:46:52.841Z,100230.98
2018-04-26T07:49:20.231Z,100231.91
2018-04-26T07:51:47.624Z,100228.92
2018-04-26T07:54:15.007Z,100230.31
2018-04-26T07:56:42.407Z,100233.14
2018-04-26T07:59:09.794Z,100233.12
2018-04-26T08:01:37.224Z,100231.84
2018-04-26T08:04:04.579Z,100229.09
2018-04-26T08:06:31.972Z,100242.00
2018-04-26T08:08:59.359Z,100242.91
2018-04-26T08:11:26.748Z,100251.39
2018-04-26T08:13:54.147Z,100242.69
2018-04-26T08:16:21.530Z,100240.28
2018-04-26T08:18:48.947Z,100248.03
2018-04-26T08:21:16.349Z,100257.48
2018-04-26T08:23:43.726Z,100259.05
2018-04-26T08:26:11.118Z,100258.34
2018-04-26T08:28:38.521Z,100263.83
2018-04-26T08:31:05.913Z,100267.80
2018-04-26T08:33:33.303Z,100268.67
2018-04-26T08:36:00.700Z,100270.24
2018-04-26T08:38:28.083Z,100270.00
2018-04-26T08:40:55.479Z,100277.69
2018-04-26T08:43:22.866Z,100278.11
2018-04-26T08:45:50.258Z,100283.16
2018-04-26T08:48:17.652Z,100282.98
2018-04-26T08:50:45.036Z,100279.68
2018-04-26T08:53:12.463Z,100282.50
2018-04-26T08:55:39.835Z,100287.19
2018-04-26T08:58:07.222Z,100278.73
2018-04-26T09:00:34.615Z,100289.38
2018-04-26T09:03:02.013Z,100287.86
2018-04-26T09:05:29.408Z,100292.28
2018-04-26T09:07:56.812Z,100287.44
2018-04-26T09:10:24.191Z,100286.62
2018-04-26T09:12:51.630Z,100290.98
2018-04-26T09:15:19.022Z,100286.08
2018-04-26T09:17:46.458Z,100291.73
2018-04-26T09:20:13.852Z,100302.64
2018-04-26T09:22:41.234Z,100296.85
2018-04-26T09:25:08.641Z,100297.99
2018-04-26T09:27:36.082Z,100310.91
2018-04-26T09:30:03.560Z,100314.91
2018-04-26T09:32:30.883Z,100303.87
2018-04-26T09:34:58.283Z,100303.91
2018-04-26T09:37:25.667Z,100306.36
2018-04-26T09:39:53.064Z,100311.73
2018-04-26T09:42:20.447Z,100313.56
2018-04-26T09:44:47.843Z,100308.20
2018-04-26T09:47:15.240Z,100312.78
2018-04-26T09:49:42.645Z,100316.20
2018-04-26T09:52:10.017Z,100310.67
2018-04-26T09:54:37.412Z,100322.44
2018-04-26T09:57:04.801Z,100321.84
2018-04-26T09:59:32.191Z,100319.92
2018-04-26T10:02:02.518Z,100324.89
2018-04-26T10:07:24.370Z,100327.22
2018-04-26T10:09:51.750Z,100318.11
2018-04-26T10:12:19.175Z,100320.70
2018-04-26T10:14:46.564Z,100313.63
2018-04-26T10:17:13.958Z,100322.37
2018-04-26T10:19:41.344Z,100318.27
2018-04-26T10:22:08.761Z,100330.95
2018-04-26T10:24:36.135Z,100330.85
2018-04-26T10:27:03.523Z,100334.20
2018-04-26T10:29:30.907Z,100328.11
2018-04-26T10:31:58.912Z,100334.50
2018-04-26T10:34:26.283Z,100325.13
2018-04-26T10:36:53.666Z,100326.46
2018-04-26T10:39:21.058Z,100333.45
2018-04-26T10:41:48.451Z,100334.70
2018-04-26T10:44:15.841Z,100343.41
2018-04-26T10:46:43.234Z,100340.80
2018-04-26T10:49:10.630Z,100340.61
2018-04-26T10:51:38.011Z,100344.55
2018-04-26T10:54:05.442Z,100341.13
2018-04-26T10:56:32.824Z,100349.79
2018-04-26T10:59:00.209Z,100340.45
2018-04-26T11:01:27.615Z,100344.42
2018-04-26T11:03:54.992Z,100342.75
2018-04-26T11:06:22.371Z,100340.30
2018-04-26T11:08:49.751Z,100336.55
2018-04-26T11:11:17.221Z,100338.37
2018-04-26T11:13:44.522Z,100336.55
2018-04-26T11:16:11.932Z,100333.70
2018-04-26T11:18:39.307Z,100335.70
2018-04-26T11:21:06.699Z,100330.09
2018-04-26T11:23:34.082Z,100329.93
2018-04-26T11:26:01.483Z,100336.76
2018-04-26T11:28:28.881Z,100335.83
2018-04-26T11:30:56.277Z,100336.73
2018-04-26T11:33:23.658Z,100339.27
2018-04-26T11:35:51.047Z,100335.23
2018-04-26T11:38:18.430Z,100331.99
2018-04-26T11:40:45.815Z,100330.12
2018-04-26T11:43:13.212Z,100332.10
2018-04-26T11:45:40.587Z,100333.06
2018-04-26T11:48:07.966Z,100324.81
2018-04-26T11:50:35.342Z,100326.08
2018-04-26T11:53:02.727Z,100319.86
2018-04-26T11:55:30.107Z,100325.27
2018-04-26T11:57:57.499Z,100342.21
2018-04-26T12:00:24.903Z,100332.14
2018-04-26T12:02:52.293Z,100334.80
2018-04-26T12:05:19.674Z,100335.75
2018-04-26T12:07:47.147Z,100328.70
2018-04-26T12:10:14.463Z,100336.20
2018-04-26T12:12:41.842Z,100338.91
2018-04-26T12:15:09.222Z,100336.50
2018-04-26T12:17:36.654Z,100333.50
2018-04-26T12:20:04.051Z,100334.94
2018-04-26T12:22:31.431Z,100336.27
2018-04-26T12:24:58.819Z,100337.77
2018-04-26T12:27:26.225Z,100336.41
2018-04-26T12:29:53.603Z,100329.59
2018-04-26T12:32:20.987Z,100338.32
2018-04-26T12:34:48.384Z,100334.34
2018-04-26T12:37:15.767Z,100334.41
2018-04-26T12:39:43.160Z,100324.96
2018-04-26T12:42:10.556Z,100328.79
2018-04-26T12:44:37.917Z,100326.05
2018-04-26T12:47:05.308Z,100326.97
2018-04-26T12:49:32.799Z,100322.48
2018-04-26T12:52:01.038Z,100316.91
2018-04-26T12:54:28.415Z,100321.09
2018-04-26T12:56:55.808Z,100315.66
2018-04-26T12:59:23.302Z,100325.03
2018-04-26T13:01:50.695Z,100316.86
2018-04-26T13:04:18.086Z,100314.05
2018-04-26T13:06:45.483Z,100313.27
2018-04-26T13:09:12.879Z,100309.17
2018-04-26T13:11:40.303Z,100315.77
2018-04-26T13:14:07.679Z,100315.98
2018-04-26T13:16:35.087Z,100312.41
2018-04-26T13:19:02.506Z,100306.97
2018-04-26T13:21:29.903Z,100300.41
2018-04-26T13:23:57.276Z,100304.19
2018-04-26T13:26:24.667Z,100301.77
2018-04-26T13:28:52.050Z,100307.16
2018-04-26T13:31:19.451Z,100309.38
2018-04-26T13:33:46.842Z,100304.55
2018-04-26T13:36:14.381Z,100307.33
2018-04-26T13:38:41.747Z,100307.02
2018-04-26T13:41:09.134Z,100317.98
2018-04-26T13:43:36.535Z,100300.55
2018-04-26T13:46:03.954Z,100309.19
2018-04-26T13:48:31.330Z,100301.58
2018-04-26T13:50:58.727Z,100300.00
2018-04-26T13:53:26.364Z,100290.15
2018-04-26T13:55:53.770Z,100288.53
2018-04-26T13:58:21.176Z,100294.76
2018-04-26T14:00:48.872Z,100290.61
2018-04-26T14:03:16.255Z,100283.83
2018-04-26T14:05:43.667Z,100289.97
2018-04-26T14:08:11.094Z,100289.94
2018-04-26T14:10:38.495Z,100291.32
2018-04-26T14:13:05.911Z,100294.90
2018-04-26T14:15:33.294Z,100306.48
2018-04-26T14:18:00.681Z,100303.52
2018-04-26T14:20:28.074Z,100302.31
2018-04-26T14:22:55.521Z,100305.58
2018-04-26T14:25:22.915Z,100307.70
2018-04-26T14:27:51.576Z,100320.69
2018-04-26T14:30:18.991Z,100322.95
2018-04-26T14:32:46.399Z,100324.84
2018-04-26T14:35:13.774Z,100322.45
2018-04-26T14:37:41.221Z,100324.25
2018-04-26T14:40:08.569Z,100317.95
2018-04-26T14:42:35.947Z,100315.91
2018-04-26T14:45:03.331Z,100314.30
2018-04-26T14:47:30.727Z,100311.42
2018-04-26T14:49:58.187Z,100310.14
2018-04-26T14:52:25.849Z,100306.11
2018-04-26T14:54:53.222Z,100296.34
2018-04-26T14:57:20.722Z,100292.84
2018-04-26T14:59:48.114Z,100286.34
2018-04-26T15:02:15.535Z,100291.61
2018-04-26T15:04:42.947Z,100291.61
2018-04-26T15:07:10.375Z,100294.95
2018-04-26T15:09:37.767Z,100283.19
2018-04-26T15:12:05.149Z,100281.00
2018-04-26T15:14:32.663Z,100290.61
2018-04-26T15:17:00.067Z,100296.45
2018-04-26T15:19:27.438Z,100281.61
2018-04-26T15:21:54.822Z,100288.89
2018-04-26T15:24:22.227Z,100289.61
2018-04-26T15:26:49.631Z,100291.23
2018-04-26T15:29:17.019Z,100288.52
2018-04-26T15:31:44.408Z,100296.62
2018-04-26T15:34:11.807Z,100328.27
2018-04-26T15:36:39.195Z,100338.33
2018-04-26T15:39:06.596Z,100348.57
2018-04-26T15:41:34.036Z,100350.63
2018-04-26T15:44:01.429Z,100366.10
2018-04-26T15:46:28.867Z,100363.39
2018-04-26T15:48:56.256Z,100352.72
2018-04-26T15:51:23.690Z,100312.26
2018-04-26T15:54:02.583Z,100287.29
2018-04-26T15:56:54.363Z,100307.64
2018-04-26T15:59:33.565Z,100305.86
2018-04-26T16:05:27.343Z,100299.81
2018-04-26T16:08:12.267Z,100298.93
2018-04-26T16:10:57.233Z,100295.48
2018-04-26T16:13:42.184Z,100297.17
2018-04-26T16:16:27.122Z,100292.05
2018-04-26T16:22:39.284Z,100292.25
2018-04-26T16:25:18.494Z,100288.20
2018-04-26T16:27:57.663Z,100285.86
2018-04-26T16:30:36.814Z,100310.36
2018-04-26T16:33:16.011Z,100314.73
2018-04-26T16:38:28.131Z,100327.55
2018-04-26T16:40:55.529Z,100334.18
2018-04-26T16:43:22.911Z,100331.09
2018-04-26T16:45:50.291Z,100326.28
2018-04-26T16:48:17.668Z,100284.49
2018-04-26T16:50:45.128Z,100295.09
2018-04-26T16:53:12.505Z,100294.05
2018-04-26T16:55:39.996Z,100292.66
2018-04-26T16:58:07.370Z,100291.83
2018-04-26T17:00:34.760Z,100298.22
2018-04-26T17:03:02.185Z,100295.37
2018-04-26T17:05:29.568Z,100290.12
2018-04-26T17:07:56.951Z,100293.57
2018-04-26T17:10:24.338Z,100300.09
2018-04-26T17:12:51.722Z,100301.05
2018-04-26T17:15:19.176Z,100297.03
2018-04-26T17:17:46.551Z,100298.66
2018-04-26T17:20:13.957Z,100306.77
2018-04-26T17:22:41.344Z,100322.13
2018-04-26T17:25:08.733Z,100333.80
2018-04-26T17:27:36.135Z,100330.14
2018-04-26T17:30:03.536Z,100326.28
2018-04-26T17:32:30.910Z,100309.45
2018-04-26T17:34:58.458Z,100299.91
2018-04-26T17:37:25.848Z,100306.50
2018-04-26T17:39:53.229Z,100323.75
2018-04-26T17:42:20.671Z,100325.81
2018-04-26T17:44:47.992Z,100325.41
2018-04-26T17:47:15.371Z,100330.16
2018-04-26T17:49:42.830Z,100327.73
2018-04-26T17:52:10.224Z,100323.70
2018-04-26T17:54:37.615Z,100319.63
2018-04-26T17:57:04.983Z,100308.64
2018-04-26T17:59:32.366Z,100310.48
2018-04-26T18:01:59.751Z,100309.80
2018-04-26T18:04:27.146Z,100313.02
2018-04-26T18:06:54.526Z,100310.28
2018-04-26T18:09:21.936Z,100317.45
2018-04-26T18:11:49.310Z,100330.36
2018-04-26T18:14:16.722Z,100314.34
2018-04-26T18:16:44.138Z,100313.62
2018-04-26T18:19:11.532Z,100309.69
2018-04-26T18:21:38.919Z,100315.95
2018-04-26T18:24:06.306Z,100315.37
2018-04-26T18:26:33.690Z,100318.25
2018-04-26T18:29:01.074Z,100306.97
2018-04-26T18:31:28.470Z,100300.02
2018-04-26T18:33:56.041Z,100312.66
2018-04-26T18:36:23.427Z,100303.42
2018-04-26T18:38:50.895Z,100311.53
2018-04-26T18:41:18.276Z,100314.86
2018-04-26T18:43:45.827Z,100310.38
2018-04-26T18:46:13.216Z,100318.20
2018-04-26T18:48:40.635Z,100323.75
2018-04-26T18:51:08.053Z,100325.90
2018-04-26T18:53:35.430Z,100327.06
2018-04-26T18:56:02.875Z,100338.56
2018-04-26T18:58:30.271Z,100340.38
2018-04-26T19:00:57.657Z,100334.99
2018-04-26T19:03:25.044Z,100338.45
2018-04-26T19:05:52.426Z,100331.61
2018-04-26T19:08:19.811Z,100340.61
2018-04-26T19:10:47.216Z,100340.52
2018-04-26T19:13:14.596Z,100347.91
2018-04-26T19:15:42.020Z,100352.77
2018-04-26T19:18:09.375Z,100350.41
2018-04-26T19:20:36.819Z,100345.99
2018-04-26T19:23:04.209Z,100345.63
2018-04-26T19:25:31.591Z,100358.05
2018-04-26T19:27:58.987Z,100357.33
2018-04-26T19:30:26.371Z,100359.19
2018-04-26T19:32:53.768Z,100351.25
2018-04-26T19:35:21.155Z,100354.83
2018-04-26T19:37:48.543Z,100356.95
2018-04-26T19:40:15.939Z,100351.73
2018-04-26T19:42:43.339Z,100361.38
2018-04-26T19:45:10.733Z,100359.13
2018-04-26T19:47:38.112Z,100360.03
2018-04-26T19:50:05.508Z,100360.36
2018-04-26T19:52:32.895Z,100360.77
2018-04-26T19:55:00.287Z,100360.47
2018-04-26T19:57:27.671Z,100361.09
2018-04-26T19:59:55.062Z,100361.11
2018-04-26T20:02:22.444Z,100358.59
2018-04-26T20:04:50.131Z,100361.69
2018-04-26T20:07:17.514Z,100358.72
2018-04-26T20:09:44.899Z,100357.17
2018-04-26T20:12:12.292Z,100357.20
2018-04-26T20:14:39.686Z,100352.50
2018-04-26T20:17:07.107Z,100354.03
2018-04-26T20:19:34.472Z,100353.84
2018-04-26T20:22:01.863Z,100347.60
2018-04-26T20:24:29.256Z,100350.58
2018-04-26T20:26:57.042Z,100350.69
2018-04-26T20:29:24.419Z,100359.59
2018-04-26T20:31:51.807Z,100348.69
2018-04-26T20:34:19.203Z,100343.05
2018-04-26T20:36:46.591Z,100347.64
2018-04-26T20:39:13.983Z,100347.62
2018-04-26T20:41:53.111Z,100339.52
2018-04-26T20:44:32.290Z,100336.55
2018-04-26T20:46:59.679Z,100340.49
2018-04-26T20:49:27.067Z,100342.95
2018-04-26T20:51:54.460Z,100346.26
2018-04-26T20:54:21.852Z,100340.63
2018-04-26T20:56:49.295Z,100338.36
2018-04-26T20:59:16.658Z,100332.34
2018-04-26T21:01:44.055Z,100335.01
2018-04-26T21:04:11.450Z,100330.48
2018-04-26T21:06:38.838Z,100327.73
2018-04-26T21:09:06.227Z,100320.53
2018-04-26T21:11:33.618Z,100327.42
2018-04-26T21:14:01.106Z,100320.75
2018-04-26T21:16:28.403Z,100319.23
2018-04-26T21:18:55.803Z,100319.52
2018-04-26T21:21:23.175Z,100319.70
2018-04-26T21:23:50.575Z,100322.66
2018-04-26T21:26:17.953Z,100323.45
2018-04-26T21:28:45.355Z,100325.50
2018-04-26T21:31:12.737Z,100318.70
2018-04-26T21:33:40.135Z,100322.08
2018-04-26T21:36:07.587Z,100332.09
2018-04-26T21:38:35.082Z,100328.81
2018-04-26T21:41:02.567Z,100322.05
2018-04-26T21:43:29.868Z,100326.74
2018-04-26T21:45:57.251Z,100326.03
2018-04-26T21:48:24.631Z,100332.69
2018-04-26T21:50:57.519Z,100332.59
2018-04-26T21:53:30.382Z,100327.47
2018-04-26T21:56:03.380Z,100329.91
2018-04-26T21:58:36.315Z,100335.95
2018-04-26T22:01:09.352Z,100331.63
2018-04-26T22:03:38.530Z,100333.19
2018-04-26T22:06:06.036Z,100332.16
2018-04-26T22:08:33.435Z,100332.58
2018-04-26T22:11:00.825Z,100333.26
2018-04-26T22:13:28.211Z,100331.00
2018-04-26T22:15:55.604Z,100332.92
2018-04-26T22:18:22.988Z,100327.20
2018-04-26T22:20:50.376Z,100324.24
2018-04-26T22:23:17.763Z,100324.30
2018-04-26T22:25:46.042Z,100336.19
2018-04-26T22:28:13.431Z,100333.27
2018-04-26T22:30:40.817Z,100335.91
2018-04-26T22:33:08.483Z,100333.97
2018-04-26T22:35:35.867Z,100331.72
2018-04-26T22:38:03.247Z,100332.33
2018-04-26T22:40:30.639Z,100329.98
2018-04-26T22:42:58.019Z,100328.23
2018-04-26T22:45:25.427Z,100327.23
2018-04-26T22:47:52.806Z,100325.90
2018-04-26T22:50:20.198Z,100324.64
2018-04-26T22:52:47.665Z,100315.71
2018-04-26T22:55:15.039Z,100325.53
2018-04-26T22:57:42.425Z,100326.12
2018-04-26T23:00:09.880Z,100325.99
2018-04-26T23:02:37.263Z,100325.37
2018-04-26T23:05:04.651Z,100329.48
2018-04-26T23:07:32.039Z,100328.36
2018-04-26T23:09:59.422Z,100330.40
2018-04-26T23:12:26.807Z,100328.86
2018-04-26T23:14:54.190Z,100329.55
2018-04-26T23:17:21.588Z,100327.59
2018-04-26T23:19:48.988Z,100327.88
2018-04-26T23:22:16.367Z,100324.19
2018-04-26T23:24:43.745Z,100320.42
2018-04-26T23:27:11.147Z,100318.16
2018-04-26T23:29:38.569Z,100312.53
2018-04-26T23:32:05.951Z,100318.52
2018-04-26T23:34:33.347Z,100316.97
2018-04-26T23:37:00.783Z,100315.05
2018-04-26T23:39:28.163Z,100316.97
2018-04-26T23:41:55.637Z,100324.31
2018-04-26T23:44:23.022Z,100318.56
2018-04-26T23:46:50.411Z,100321.59
2018-04-26T23:49:17.815Z,100315.48
2018-04-26T23:51:45.203Z,100315.17
2018-04-26T23:54:12.590Z,100311.86
2018-04-26T23:56:39.974Z,100313.82
2018-04-26T23:59:07.363Z,100316.84
